sensor_id;sensor_type;location;lat;lon;timestamp;P1;durP1;ratioP1;P2;durP2;ratioP2
7166;SDS011;3625;51.762;14.320;2022-08-01T00:00:10;2.65;;;2.40;;
7166;SDS011;3625;51.762;14.320;2022-08-01T00:02:39;2.65;;;2.45;;
7166;SDS011;3625;51.762;14.320;2022-08-01T00:05:09;3.67;;;2.75;;
7166;SDS011;3625;51.762;14.320;2022-08-01T00:07:53;3.13;;;2.90;;
7166;SDS011;3625;51.762;14.320;2022-08-01T00:10:22;3.60;;;2.38;;
7166;SDS011;3625;51.762;14.320;2022-08-01T00:12:51;2.60;;;2.40;;
7166;SDS011;3625;51.762;14.320;2022-08-01T00:15:20;2.45;;;2.25;;
7166;SDS011;3625;51.762;14.320;2022-08-01T00:17:49;3.42;;;2.40;;
7166;SDS011;3625;51.762;14.320;2022-08-01T00:20:18;2.60;;;2.40;;
7166;SDS011;3625;51.762;14.320;2022-08-01T00:22:46;2.50;;;2.30;;
7166;SDS011;3625;51.762;14.320;2022-08-01T00:25:16;4.57;;;2.63;;
7166;SDS011;3625;51.762;14.320;2022-08-01T00:27:59;3.15;;;2.85;;
7166;SDS011;3625;51.762;14.320;2022-08-01T00:30:30;2.88;;;2.67;;
7166;SDS011;3625;51.762;14.320;2022-08-01T00:32:58;2.92;;;2.58;;
7166;SDS011;3625;51.762;14.320;2022-08-01T00:35:28;2.88;;;2.67;;
7166;SDS011;3625;51.762;14.320;2022-08-01T00:37:56;2.75;;;2.55;;
7166;SDS011;3625;51.762;14.320;2022-08-01T00:40:27;2.65;;;2.45;;
7166;SDS011;3625;51.762;14.320;2022-08-01T00:42:56;3.03;;;2.63;;
7166;SDS011;3625;51.762;14.320;2022-08-01T00:45:25;3.75;;;2.88;;
7166;SDS011;3625;51.762;14.320;2022-08-01T00:47:59;3.33;;;3.00;;
7166;SDS011;3625;51.762;14.320;2022-08-01T00:50:29;2.83;;;2.47;;
7166;SDS011;3625;51.762;14.320;2022-08-01T00:53:11;2.92;;;2.63;;
7166;SDS011;3625;51.762;14.320;2022-08-01T00:55:51;2.78;;;2.58;;
7166;SDS011;3625;51.762;14.320;2022-08-01T00:58:34;3.50;;;2.63;;
7166;SDS011;3625;51.762;14.320;2022-08-01T01:01:04;3.25;;;2.65;;
7166;SDS011;3625;51.762;14.320;2022-08-01T01:03:42;4.90;;;3.10;;
7166;SDS011;3625;51.762;14.320;2022-08-01T01:06:30;3.22;;;2.92;;
7166;SDS011;3625;51.762;14.320;2022-08-01T01:09:15;2.85;;;2.50;;
7166;SDS011;3625;51.762;14.320;2022-08-01T01:12:04;3.28;;;2.75;;
7166;SDS011;3625;51.762;14.320;2022-08-01T01:14:51;5.03;;;3.30;;
7166;SDS011;3625;51.762;14.320;2022-08-01T01:17:32;3.00;;;2.80;;
7166;SDS011;3625;51.762;14.320;2022-08-01T01:20:17;2.80;;;2.60;;
7166;SDS011;3625;51.762;14.320;2022-08-01T01:22:55;3.65;;;2.80;;
7166;SDS011;3625;51.762;14.320;2022-08-01T01:25:47;3.20;;;3.00;;
7166;SDS011;3625;51.762;14.320;2022-08-01T01:29:02;3.63;;;2.83;;
7166;SDS011;3625;51.762;14.320;2022-08-01T01:31:40;3.72;;;3.05;;
7166;SDS011;3625;51.762;14.320;2022-08-01T01:34:19;3.47;;;3.20;;
7166;SDS011;3625;51.762;14.320;2022-08-01T01:36:55;2.72;;;2.53;;
7166;SDS011;3625;51.762;14.320;2022-08-01T01:39:28;3.63;;;2.50;;
7166;SDS011;3625;51.762;14.320;2022-08-01T01:41:59;4.97;;;3.55;;
7166;SDS011;3625;51.762;14.320;2022-08-01T01:44:34;3.30;;;3.00;;
7166;SDS011;3625;51.762;14.320;2022-08-01T01:47:11;3.45;;;3.15;;
7166;SDS011;3625;51.762;14.320;2022-08-01T01:49:44;3.22;;;2.92;;
7166;SDS011;3625;51.762;14.320;2022-08-01T01:52:33;3.28;;;2.60;;
7166;SDS011;3625;51.762;14.320;2022-08-01T01:55:04;3.10;;;2.67;;
7166;SDS011;3625;51.762;14.320;2022-08-01T01:57:40;3.97;;;2.70;;
7166;SDS011;3625;51.762;14.320;2022-08-01T02:00:17;2.95;;;2.67;;
7166;SDS011;3625;51.762;14.320;2022-08-01T02:02:46;3.53;;;2.88;;
7166;SDS011;3625;51.762;14.320;2022-08-01T02:05:20;3.90;;;2.90;;
7166;SDS011;3625;51.762;14.320;2022-08-01T02:07:49;3.95;;;3.08;;
7166;SDS011;3625;51.762;14.320;2022-08-01T02:10:25;3.33;;;3.00;;
7166;SDS011;3625;51.762;14.320;2022-08-01T02:12:56;4.03;;;2.70;;
7166;SDS011;3625;51.762;14.320;2022-08-01T02:15:31;3.33;;;2.95;;
7166;SDS011;3625;51.762;14.320;2022-08-01T02:18:24;3.55;;;2.72;;
7166;SDS011;3625;51.762;14.320;2022-08-01T02:20:53;2.90;;;2.70;;
7166;SDS011;3625;51.762;14.320;2022-08-01T02:23:25;3.38;;;2.70;;
7166;SDS011;3625;51.762;14.320;2022-08-01T02:26:00;3.10;;;2.72;;
7166;SDS011;3625;51.762;14.320;2022-08-01T02:28:38;4.50;;;2.97;;
7166;SDS011;3625;51.762;14.320;2022-08-01T02:31:16;3.10;;;2.72;;
7166;SDS011;3625;51.762;14.320;2022-08-01T02:33:52;2.72;;;2.53;;
7166;SDS011;3625;51.762;14.320;2022-08-01T02:36:26;3.20;;;2.78;;
7166;SDS011;3625;51.762;14.320;2022-08-01T02:39:02;4.05;;;2.83;;
7166;SDS011;3625;51.762;14.320;2022-08-01T02:41:38;3.30;;;3.00;;
7166;SDS011;3625;51.762;14.320;2022-08-01T02:44:12;3.05;;;2.70;;
7166;SDS011;3625;51.762;14.320;2022-08-01T02:46:53;2.95;;;2.75;;
7166;SDS011;3625;51.762;14.320;2022-08-01T02:49:29;3.97;;;2.75;;
7166;SDS011;3625;51.762;14.320;2022-08-01T02:52:04;2.95;;;2.60;;
7166;SDS011;3625;51.762;14.320;2022-08-01T02:54:36;3.17;;;2.80;;
7166;SDS011;3625;51.762;14.320;2022-08-01T02:57:07;2.90;;;2.55;;
7166;SDS011;3625;51.762;14.320;2022-08-01T02:59:39;3.42;;;2.70;;
7166;SDS011;3625;51.762;14.320;2022-08-01T03:02:12;2.65;;;2.45;;
7166;SDS011;3625;51.762;14.320;2022-08-01T03:04:44;4.32;;;2.97;;
7166;SDS011;3625;51.762;14.320;2022-08-01T03:07:21;2.95;;;2.75;;
7166;SDS011;3625;51.762;14.320;2022-08-01T03:10:00;3.85;;;2.60;;
7166;SDS011;3625;51.762;14.320;2022-08-01T03:12:31;2.90;;;2.60;;
7166;SDS011;3625;51.762;14.320;2022-08-01T03:15:06;2.90;;;2.70;;
7166;SDS011;3625;51.762;14.320;2022-08-01T03:17:39;3.03;;;2.72;;
7166;SDS011;3625;51.762;14.320;2022-08-01T03:20:13;3.20;;;2.88;;
7166;SDS011;3625;51.762;14.320;2022-08-01T03:22:44;2.83;;;2.63;;
7166;SDS011;3625;51.762;14.320;2022-08-01T03:25:16;2.72;;;2.53;;
7166;SDS011;3625;51.762;14.320;2022-08-01T03:27:47;2.55;;;2.35;;
7166;SDS011;3625;51.762;14.320;2022-08-01T03:30:22;2.88;;;2.67;;
7166;SDS011;3625;51.762;14.320;2022-08-01T03:32:55;2.78;;;2.58;;
7166;SDS011;3625;51.762;14.320;2022-08-01T03:35:26;3.38;;;3.03;;
7166;SDS011;3625;51.762;14.320;2022-08-01T03:38:03;2.85;;;2.38;;
7166;SDS011;3625;51.762;14.320;2022-08-01T03:40:43;3.55;;;3.25;;
7166;SDS011;3625;51.762;14.320;2022-08-01T03:43:18;3.80;;;3.00;;
7166;SDS011;3625;51.762;14.320;2022-08-01T03:45:54;3.65;;;2.63;;
7166;SDS011;3625;51.762;14.320;2022-08-01T03:48:31;2.83;;;2.53;;
7166;SDS011;3625;51.762;14.320;2022-08-01T03:51:04;3.15;;;2.90;;
7166;SDS011;3625;51.762;14.320;2022-08-01T03:53:36;3.28;;;2.80;;
7166;SDS011;3625;51.762;14.320;2022-08-01T03:56:08;2.75;;;2.55;;
7166;SDS011;3625;51.762;14.320;2022-08-01T03:58:40;2.75;;;2.55;;
7166;SDS011;3625;51.762;14.320;2022-08-01T04:01:15;2.97;;;2.60;;
7166;SDS011;3625;51.762;14.320;2022-08-01T04:03:47;3.67;;;2.60;;
7166;SDS011;3625;51.762;14.320;2022-08-01T04:06:16;3.55;;;3.10;;
7166;SDS011;3625;51.762;14.320;2022-08-01T04:08:45;5.22;;;3.00;;
7166;SDS011;3625;51.762;14.320;2022-08-01T04:11:23;2.70;;;2.50;;
7166;SDS011;3625;51.762;14.320;2022-08-01T04:13:54;3.58;;;2.85;;
7166;SDS011;3625;51.762;14.320;2022-08-01T04:16:24;4.35;;;2.70;;
7166;SDS011;3625;51.762;14.320;2022-08-01T04:18:54;3.67;;;3.42;;
7166;SDS011;3625;51.762;14.320;2022-08-01T04:21:24;3.67;;;3.38;;
7166;SDS011;3625;51.762;14.320;2022-08-01T04:23:59;2.88;;;2.67;;
7166;SDS011;3625;51.762;14.320;2022-08-01T04:26:31;3.00;;;2.78;;
7166;SDS011;3625;51.762;14.320;2022-08-01T04:29:03;3.53;;;2.53;;
7166;SDS011;3625;51.762;14.320;2022-08-01T04:31:35;5.18;;;3.13;;
7166;SDS011;3625;51.762;14.320;2022-08-01T04:34:11;3.38;;;2.60;;
7166;SDS011;3625;51.762;14.320;2022-08-01T04:36:45;3.03;;;2.80;;
7166;SDS011;3625;51.762;14.320;2022-08-01T04:39:16;3.17;;;2.88;;
7166;SDS011;3625;51.762;14.320;2022-08-01T04:41:47;3.17;;;2.90;;
7166;SDS011;3625;51.762;14.320;2022-08-01T04:44:18;3.20;;;2.90;;
7166;SDS011;3625;51.762;14.320;2022-08-01T04:46:48;3.05;;;2.85;;
7166;SDS011;3625;51.762;14.320;2022-08-01T04:49:22;2.63;;;2.42;;
7166;SDS011;3625;51.762;14.320;2022-08-01T04:51:51;2.85;;;2.55;;
7166;SDS011;3625;51.762;14.320;2022-08-01T04:54:24;2.80;;;2.60;;
7166;SDS011;3625;51.762;14.320;2022-08-01T04:56:53;2.60;;;2.40;;
7166;SDS011;3625;51.762;14.320;2022-08-01T04:59:26;3.80;;;2.65;;
7166;SDS011;3625;51.762;14.320;2022-08-01T05:02:08;2.60;;;2.40;;
7166;SDS011;3625;51.762;14.320;2022-08-01T05:04:41;3.13;;;2.92;;
7166;SDS011;3625;51.762;14.320;2022-08-01T05:07:11;3.20;;;2.80;;
7166;SDS011;3625;51.762;14.320;2022-08-01T05:09:42;2.65;;;2.45;;
7166;SDS011;3625;51.762;14.320;2022-08-01T05:12:12;3.78;;;2.60;;
7166;SDS011;3625;51.762;14.320;2022-08-01T05:14:42;3.05;;;2.75;;
7166;SDS011;3625;51.762;14.320;2022-08-01T05:17:12;3.42;;;3.05;;
7166;SDS011;3625;51.762;14.320;2022-08-01T05:19:42;4.47;;;2.50;;
7166;SDS011;3625;51.762;14.320;2022-08-01T05:22:12;3.15;;;2.67;;
7166;SDS011;3625;51.762;14.320;2022-08-01T05:24:40;3.17;;;2.88;;
7166;SDS011;3625;51.762;14.320;2022-08-01T05:27:10;2.65;;;2.42;;
7166;SDS011;3625;51.762;14.320;2022-08-01T05:29:41;6.20;;;2.75;;
7166;SDS011;3625;51.762;14.320;2022-08-01T05:32:10;6.18;;;3.38;;
7166;SDS011;3625;51.762;14.320;2022-08-01T05:34:39;4.70;;;2.90;;
7166;SDS011;3625;51.762;14.320;2022-08-01T05:37:10;2.30;;;2.10;;
7166;SDS011;3625;51.762;14.320;2022-08-01T05:39:38;3.05;;;2.55;;
7166;SDS011;3625;51.762;14.320;2022-08-01T05:42:07;3.47;;;2.75;;
7166;SDS011;3625;51.762;14.320;2022-08-01T05:44:36;2.97;;;2.78;;
7166;SDS011;3625;51.762;14.320;2022-08-01T05:47:05;5.60;;;3.28;;
7166;SDS011;3625;51.762;14.320;2022-08-01T05:49:34;3.22;;;2.63;;
7166;SDS011;3625;51.762;14.320;2022-08-01T05:52:02;2.70;;;2.50;;
7166;SDS011;3625;51.762;14.320;2022-08-01T05:54:33;2.83;;;2.63;;
7166;SDS011;3625;51.762;14.320;2022-08-01T05:57:02;2.40;;;2.20;;
7166;SDS011;3625;51.762;14.320;2022-08-01T05:59:32;3.42;;;2.35;;
7166;SDS011;3625;51.762;14.320;2022-08-01T06:02:01;2.80;;;2.60;;
7166;SDS011;3625;51.762;14.320;2022-08-01T06:04:30;2.95;;;2.42;;
7166;SDS011;3625;51.762;14.320;2022-08-01T06:06:59;4.07;;;2.35;;
7166;SDS011;3625;51.762;14.320;2022-08-01T06:09:28;3.45;;;2.30;;
7166;SDS011;3625;51.762;14.320;2022-08-01T06:11:58;2.47;;;2.28;;
7166;SDS011;3625;51.762;14.320;2022-08-01T06:14:27;3.30;;;2.30;;
7166;SDS011;3625;51.762;14.320;2022-08-01T06:16:56;2.50;;;2.17;;
7166;SDS011;3625;51.762;14.320;2022-08-01T06:19:25;2.47;;;2.25;;
7166;SDS011;3625;51.762;14.320;2022-08-01T06:21:54;2.67;;;2.40;;
7166;SDS011;3625;51.762;14.320;2022-08-01T06:24:23;2.92;;;2.35;;
7166;SDS011;3625;51.762;14.320;2022-08-01T06:26:53;4.22;;;2.65;;
7166;SDS011;3625;51.762;14.320;2022-08-01T06:29:31;2.50;;;2.25;;
7166;SDS011;3625;51.762;14.320;2022-08-01T06:32:19;3.45;;;2.58;;
7166;SDS011;3625;51.762;14.320;2022-08-01T06:34:53;3.35;;;2.65;;
7166;SDS011;3625;51.762;14.320;2022-08-01T06:37:22;2.60;;;2.40;;
7166;SDS011;3625;51.762;14.320;2022-08-01T06:39:51;2.80;;;2.60;;
7166;SDS011;3625;51.762;14.320;2022-08-01T06:42:20;4.70;;;2.60;;
7166;SDS011;3625;51.762;14.320;2022-08-01T06:44:51;2.67;;;2.45;;
7166;SDS011;3625;51.762;14.320;2022-08-01T06:47:20;2.63;;;2.10;;
7166;SDS011;3625;51.762;14.320;2022-08-01T06:49:52;2.50;;;2.30;;
7166;SDS011;3625;51.762;14.320;2022-08-01T06:52:21;4.55;;;2.70;;
7166;SDS011;3625;51.762;14.320;2022-08-01T06:54:50;2.80;;;2.40;;
7166;SDS011;3625;51.762;14.320;2022-08-01T06:57:20;2.95;;;2.70;;
7166;SDS011;3625;51.762;14.320;2022-08-01T06:59:49;2.90;;;2.70;;
7166;SDS011;3625;51.762;14.320;2022-08-01T07:02:20;3.45;;;2.67;;
7166;SDS011;3625;51.762;14.320;2022-08-01T07:04:49;3.17;;;2.65;;
7166;SDS011;3625;51.762;14.320;2022-08-01T07:07:18;2.88;;;2.67;;
7166;SDS011;3625;51.762;14.320;2022-08-01T07:09:47;3.10;;;2.80;;
7166;SDS011;3625;51.762;14.320;2022-08-01T07:12:18;2.70;;;2.40;;
7166;SDS011;3625;51.762;14.320;2022-08-01T07:14:46;3.05;;;2.75;;
7166;SDS011;3625;51.762;14.320;2022-08-01T07:17:16;3.72;;;2.67;;
7166;SDS011;3625;51.762;14.320;2022-08-01T07:19:47;3.00;;;2.25;;
7166;SDS011;3625;51.762;14.320;2022-08-01T07:22:15;4.13;;;2.55;;
7166;SDS011;3625;51.762;14.320;2022-08-01T07:24:48;2.47;;;2.28;;
7166;SDS011;3625;51.762;14.320;2022-08-01T07:27:20;3.47;;;2.70;;
7166;SDS011;3625;51.762;14.320;2022-08-01T07:29:51;2.35;;;2.20;;
7166;SDS011;3625;51.762;14.320;2022-08-01T07:32:22;2.35;;;2.15;;
7166;SDS011;3625;51.762;14.320;2022-08-01T07:34:52;2.30;;;2.05;;
7166;SDS011;3625;51.762;14.320;2022-08-01T07:37:20;3.28;;;2.33;;
7166;SDS011;3625;51.762;14.320;2022-08-01T07:40:10;3.20;;;2.15;;
7166;SDS011;3625;51.762;14.320;2022-08-01T07:42:42;2.65;;;2.45;;
7166;SDS011;3625;51.762;14.320;2022-08-01T07:45:11;2.30;;;2.10;;
7166;SDS011;3625;51.762;14.320;2022-08-01T07:47:42;1.90;;;1.75;;
7166;SDS011;3625;51.762;14.320;2022-08-01T07:50:12;2.70;;;2.03;;
7166;SDS011;3625;51.762;14.320;2022-08-01T07:52:41;2.33;;;2.13;;
7166;SDS011;3625;51.762;14.320;2022-08-01T07:55:11;2.08;;;1.98;;
7166;SDS011;3625;51.762;14.320;2022-08-01T07:57:42;2.30;;;2.10;;
7166;SDS011;3625;51.762;14.320;2022-08-01T08:00:11;2.15;;;2.05;;
7166;SDS011;3625;51.762;14.320;2022-08-01T08:02:43;2.65;;;2.30;;
7166;SDS011;3625;51.762;14.320;2022-08-01T08:05:12;3.08;;;2.30;;
7166;SDS011;3625;51.762;14.320;2022-08-01T08:08:01;8.15;;;2.58;;
7166;SDS011;3625;51.762;14.320;2022-08-01T08:10:30;2.70;;;2.50;;
7166;SDS011;3625;51.762;14.320;2022-08-01T08:12:58;2.38;;;2.10;;
7166;SDS011;3625;51.762;14.320;2022-08-01T08:15:28;2.55;;;2.03;;
7166;SDS011;3625;51.762;14.320;2022-08-01T08:18:00;2.17;;;2.08;;
7166;SDS011;3625;51.762;14.320;2022-08-01T08:20:30;2.08;;;1.98;;
7166;SDS011;3625;51.762;14.320;2022-08-01T08:22:59;2.15;;;2.00;;
7166;SDS011;3625;51.762;14.320;2022-08-01T08:26:08;2.13;;;2.03;;
7166;SDS011;3625;51.762;14.320;2022-08-01T08:28:37;2.67;;;2.35;;
7166;SDS011;3625;51.762;14.320;2022-08-01T08:31:06;2.17;;;2.05;;
7166;SDS011;3625;51.762;14.320;2022-08-01T08:33:56;2.33;;;2.13;;
7166;SDS011;3625;51.762;14.320;2022-08-01T08:36:25;2.50;;;2.30;;
7166;SDS011;3625;51.762;14.320;2022-08-01T08:38:57;4.15;;;2.00;;
7166;SDS011;3625;51.762;14.320;2022-08-01T08:41:28;2.42;;;2.22;;
7166;SDS011;3625;51.762;14.320;2022-08-01T08:44:04;2.30;;;1.98;;
7166;SDS011;3625;51.762;14.320;2022-08-01T08:46:40;3.20;;;1.85;;
7166;SDS011;3625;51.762;14.320;2022-08-01T08:49:14;1.75;;;1.65;;
7166;SDS011;3625;51.762;14.320;2022-08-01T08:51:47;2.17;;;1.98;;
7166;SDS011;3625;51.762;14.320;2022-08-01T08:54:18;2.25;;;2.03;;
7166;SDS011;3625;51.762;14.320;2022-08-01T08:56:57;1.77;;;1.60;;
7166;SDS011;3625;51.762;14.320;2022-08-01T08:59:28;2.17;;;1.83;;
7166;SDS011;3625;51.762;14.320;2022-08-01T09:01:57;1.98;;;1.77;;
7166;SDS011;3625;51.762;14.320;2022-08-01T09:04:27;2.05;;;1.95;;
7166;SDS011;3625;51.762;14.320;2022-08-01T09:06:57;2.67;;;1.75;;
7166;SDS011;3625;51.762;14.320;2022-08-01T09:09:26;2.65;;;1.90;;
7166;SDS011;3625;51.762;14.320;2022-08-01T09:11:55;2.03;;;1.92;;
7166;SDS011;3625;51.762;14.320;2022-08-01T09:14:26;3.35;;;1.88;;
7166;SDS011;3625;51.762;14.320;2022-08-01T09:17:00;1.77;;;1.67;;
7166;SDS011;3625;51.762;14.320;2022-08-01T09:19:38;2.03;;;1.92;;
7166;SDS011;3625;51.762;14.320;2022-08-01T09:22:09;3.67;;;1.70;;
7166;SDS011;3625;51.762;14.320;2022-08-01T09:24:40;3.17;;;2.00;;
7166;SDS011;3625;51.762;14.320;2022-08-01T09:27:17;1.98;;;1.80;;
7166;SDS011;3625;51.762;14.320;2022-08-01T09:29:50;2.05;;;1.60;;
7166;SDS011;3625;51.762;14.320;2022-08-01T09:32:28;1.90;;;1.60;;
7166;SDS011;3625;51.762;14.320;2022-08-01T09:38:13;3.15;;;1.95;;
7166;SDS011;3625;51.762;14.320;2022-08-01T09:40:44;1.80;;;1.70;;
7166;SDS011;3625;51.762;14.320;2022-08-01T09:43:20;1.70;;;1.60;;
7166;SDS011;3625;51.762;14.320;2022-08-01T09:45:52;2.00;;;1.63;;
7166;SDS011;3625;51.762;14.320;2022-08-01T09:48:24;1.50;;;1.40;;
7166;SDS011;3625;51.762;14.320;2022-08-01T09:50:56;1.85;;;1.75;;
7166;SDS011;3625;51.762;14.320;2022-08-01T09:53:41;1.70;;;1.60;;
7166;SDS011;3625;51.762;14.320;2022-08-01T09:56:18;1.60;;;1.50;;
7166;SDS011;3625;51.762;14.320;2022-08-01T09:58:49;1.75;;;1.63;;
7166;SDS011;3625;51.762;14.320;2022-08-01T10:01:26;1.48;;;1.38;;
7166;SDS011;3625;51.762;14.320;2022-08-01T10:04:08;1.63;;;1.52;;
7166;SDS011;3625;51.762;14.320;2022-08-01T10:06:43;1.55;;;1.45;;
7166;SDS011;3625;51.762;14.320;2022-08-01T10:09:18;1.40;;;1.30;;
7166;SDS011;3625;51.762;14.320;2022-08-01T10:12:06;2.70;;;1.60;;
7166;SDS011;3625;51.762;14.320;2022-08-01T10:14:42;1.48;;;1.38;;
7166;SDS011;3625;51.762;14.320;2022-08-01T10:17:16;1.67;;;1.33;;
7166;SDS011;3625;51.762;14.320;2022-08-01T10:19:48;1.90;;;1.70;;
7166;SDS011;3625;51.762;14.320;2022-08-01T10:22:25;1.98;;;1.30;;
7166;SDS011;3625;51.762;14.320;2022-08-01T10:25:02;1.85;;;1.50;;
7166;SDS011;3625;51.762;14.320;2022-08-01T10:27:34;1.40;;;1.30;;
7166;SDS011;3625;51.762;14.320;2022-08-01T10:30:06;1.70;;;1.60;;
7166;SDS011;3625;51.762;14.320;2022-08-01T10:32:48;1.60;;;1.42;;
7166;SDS011;3625;51.762;14.320;2022-08-01T10:35:21;1.60;;;1.50;;
7166;SDS011;3625;51.762;14.320;2022-08-01T10:38:11;1.42;;;1.33;;
7166;SDS011;3625;51.762;14.320;2022-08-01T10:40:40;6.93;;;0.90;;
7166;SDS011;3625;51.762;14.320;2022-08-01T10:43:10;4.43;;;1.15;;
7166;SDS011;3625;51.762;14.320;2022-08-01T10:45:47;2.15;;;0.80;;
7166;SDS011;3625;51.762;14.320;2022-08-01T10:48:19;1.27;;;1.08;;
7166;SDS011;3625;51.762;14.320;2022-08-01T10:50:57;2.95;;;0.80;;
7166;SDS011;3625;51.762;14.320;2022-08-01T10:53:50;1.50;;;1.13;;
7166;SDS011;3625;51.762;14.320;2022-08-01T10:56:22;1.05;;;0.90;;
7166;SDS011;3625;51.762;14.320;2022-08-01T10:59:00;1.35;;;0.75;;
7166;SDS011;3625;51.762;14.320;2022-08-01T11:01:37;1.00;;;0.90;;
7166;SDS011;3625;51.762;14.320;2022-08-01T11:04:11;0.80;;;0.80;;
7166;SDS011;3625;51.762;14.320;2022-08-01T11:06:52;0.90;;;0.90;;
7166;SDS011;3625;51.762;14.320;2022-08-01T11:09:41;0.95;;;0.95;;
7166;SDS011;3625;51.762;14.320;2022-08-01T11:12:17;1.23;;;1.13;;
7166;SDS011;3625;51.762;14.320;2022-08-01T11:15:16;2.78;;;1.33;;
7166;SDS011;3625;51.762;14.320;2022-08-01T11:17:57;1.50;;;1.40;;
7166;SDS011;3625;51.762;14.320;2022-08-01T11:20:30;1.70;;;1.60;;
7166;SDS011;3625;51.762;14.320;2022-08-01T11:26:09;1.65;;;1.55;;
7166;SDS011;3625;51.762;14.320;2022-08-01T11:29:12;1.70;;;1.60;;
7166;SDS011;3625;51.762;14.320;2022-08-01T11:31:47;2.00;;;1.80;;
7166;SDS011;3625;51.762;14.320;2022-08-01T11:34:18;2.20;;;1.88;;
7166;SDS011;3625;51.762;14.320;2022-08-01T11:36:48;2.50;;;1.80;;
7166;SDS011;3625;51.762;14.320;2022-08-01T11:39:25;1.83;;;1.70;;
7166;SDS011;3625;51.762;14.320;2022-08-01T11:41:56;2.10;;;1.88;;
7166;SDS011;3625;51.762;14.320;2022-08-01T11:44:49;2.10;;;2.00;;
7166;SDS011;3625;51.762;14.320;2022-08-01T11:53:03;2.75;;;1.80;;
7166;SDS011;3625;51.762;14.320;2022-08-01T11:55:36;2.25;;;2.08;;
7166;SDS011;3625;51.762;14.320;2022-08-01T11:58:21;2.72;;;2.05;;
7166;SDS011;3625;51.762;14.320;2022-08-01T12:00:57;2.28;;;2.08;;
7166;SDS011;3625;51.762;14.320;2022-08-01T12:03:27;2.75;;;2.10;;
7166;SDS011;3625;51.762;14.320;2022-08-01T12:06:00;1.90;;;1.80;;
7166;SDS011;3625;51.762;14.320;2022-08-01T12:08:31;2.83;;;2.42;;
7166;SDS011;3625;51.762;14.320;2022-08-01T12:11:03;2.22;;;2.10;;
7166;SDS011;3625;51.762;14.320;2022-08-01T12:13:44;2.30;;;2.17;;
7166;SDS011;3625;51.762;14.320;2022-08-01T12:16:29;2.65;;;2.40;;
7166;SDS011;3625;51.762;14.320;2022-08-01T12:19:06;3.05;;;2.85;;
7166;SDS011;3625;51.762;14.320;2022-08-01T12:21:37;2.97;;;2.72;;
7166;SDS011;3625;51.762;14.320;2022-08-01T12:24:06;3.15;;;2.85;;
7166;SDS011;3625;51.762;14.320;2022-08-01T12:26:39;2.75;;;2.55;;
7166;SDS011;3625;51.762;14.320;2022-08-01T12:29:10;2.35;;;2.25;;
7166;SDS011;3625;51.762;14.320;2022-08-01T12:31:58;2.92;;;2.72;;
7166;SDS011;3625;51.762;14.320;2022-08-01T12:34:28;2.83;;;2.63;;
7166;SDS011;3625;51.762;14.320;2022-08-01T12:37:00;2.85;;;2.65;;
7166;SDS011;3625;51.762;14.320;2022-08-01T12:39:34;2.50;;;2.30;;
7166;SDS011;3625;51.762;14.320;2022-08-01T12:42:06;2.78;;;2.58;;
7166;SDS011;3625;51.762;14.320;2022-08-01T12:44:38;2.70;;;2.50;;
7166;SDS011;3625;51.762;14.320;2022-08-01T12:47:09;2.92;;;2.72;;
7166;SDS011;3625;51.762;14.320;2022-08-01T12:49:41;2.65;;;2.45;;
7166;SDS011;3625;51.762;14.320;2022-08-01T12:52:12;2.10;;;2.00;;
7166;SDS011;3625;51.762;14.320;2022-08-01T12:54:59;2.40;;;2.20;;
7166;SDS011;3625;51.762;14.320;2022-08-01T12:57:36;2.22;;;2.10;;
7166;SDS011;3625;51.762;14.320;2022-08-01T13:00:13;2.33;;;2.10;;
7166;SDS011;3625;51.762;14.320;2022-08-01T13:02:46;2.22;;;1.80;;
7166;SDS011;3625;51.762;14.320;2022-08-01T13:05:18;4.90;;;2.28;;
7166;SDS011;3625;51.762;14.320;2022-08-01T13:07:48;2.90;;;2.30;;
7166;SDS011;3625;51.762;14.320;2022-08-01T13:10:25;2.28;;;2.08;;
7166;SDS011;3625;51.762;14.320;2022-08-01T13:12:57;2.80;;;2.60;;
7166;SDS011;3625;51.762;14.320;2022-08-01T13:15:29;4.68;;;2.38;;
7166;SDS011;3625;51.762;14.320;2022-08-01T13:18:23;2.55;;;2.00;;
7166;SDS011;3625;51.762;14.320;2022-08-01T13:21:10;1.88;;;1.77;;
7166;SDS011;3625;51.762;14.320;2022-08-01T13:23:42;2.30;;;1.80;;
7166;SDS011;3625;51.762;14.320;2022-08-01T13:26:40;2.00;;;1.90;;
7166;SDS011;3625;51.762;14.320;2022-08-01T13:29:11;2.55;;;1.77;;
7166;SDS011;3625;51.762;14.320;2022-08-01T13:31:43;1.80;;;1.70;;
7166;SDS011;3625;51.762;14.320;2022-08-01T13:34:14;1.65;;;1.55;;
7166;SDS011;3625;51.762;14.320;2022-08-01T13:36:43;1.58;;;1.48;;
7166;SDS011;3625;51.762;14.320;2022-08-01T13:39:15;2.08;;;1.48;;
7166;SDS011;3625;51.762;14.320;2022-08-01T13:42:01;1.65;;;1.40;;
7166;SDS011;3625;51.762;14.320;2022-08-01T13:44:31;2.75;;;1.70;;
7166;SDS011;3625;51.762;14.320;2022-08-01T13:47:01;1.85;;;1.60;;
7166;SDS011;3625;51.762;14.320;2022-08-01T13:49:42;1.58;;;1.48;;
7166;SDS011;3625;51.762;14.320;2022-08-01T13:52:11;1.40;;;1.30;;
7166;SDS011;3625;51.762;14.320;2022-08-01T13:54:40;2.22;;;1.33;;
7166;SDS011;3625;51.762;14.320;2022-08-01T13:57:08;1.20;;;1.10;;
7166;SDS011;3625;51.762;14.320;2022-08-01T13:59:37;1.67;;;1.58;;
7166;SDS011;3625;51.762;14.320;2022-08-01T14:02:07;1.40;;;1.30;;
7166;SDS011;3625;51.762;14.320;2022-08-01T14:04:36;1.67;;;1.58;;
7166;SDS011;3625;51.762;14.320;2022-08-01T14:07:05;1.48;;;1.30;;
7166;SDS011;3625;51.762;14.320;2022-08-01T14:09:40;1.85;;;1.75;;
7166;SDS011;3625;51.762;14.320;2022-08-01T14:12:10;2.45;;;1.73;;
7166;SDS011;3625;51.762;14.320;2022-08-01T14:14:39;1.80;;;1.70;;
7166;SDS011;3625;51.762;14.320;2022-08-01T14:17:10;1.95;;;1.85;;
7166;SDS011;3625;51.762;14.320;2022-08-01T14:19:43;1.75;;;1.60;;
7166;SDS011;3625;51.762;14.320;2022-08-01T14:22:11;1.45;;;1.35;;
7166;SDS011;3625;51.762;14.320;2022-08-01T14:24:40;1.67;;;1.58;;
7166;SDS011;3625;51.762;14.320;2022-08-01T14:27:09;1.65;;;1.55;;
7166;SDS011;3625;51.762;14.320;2022-08-01T14:29:38;1.70;;;1.60;;
7166;SDS011;3625;51.762;14.320;2022-08-01T14:32:28;1.70;;;1.60;;
7166;SDS011;3625;51.762;14.320;2022-08-01T14:34:59;1.60;;;1.50;;
7166;SDS011;3625;51.762;14.320;2022-08-01T14:37:29;1.60;;;1.50;;
7166;SDS011;3625;51.762;14.320;2022-08-01T14:40:04;1.48;;;1.38;;
7166;SDS011;3625;51.762;14.320;2022-08-01T14:42:36;1.50;;;1.40;;
7166;SDS011;3625;51.762;14.320;2022-08-01T14:45:06;1.52;;;1.42;;
7166;SDS011;3625;51.762;14.320;2022-08-01T14:47:37;2.13;;;1.50;;
7166;SDS011;3625;51.762;14.320;2022-08-01T14:50:09;2.08;;;1.60;;
7166;SDS011;3625;51.762;14.320;2022-08-01T14:52:41;2.70;;;1.42;;
7166;SDS011;3625;51.762;14.320;2022-08-01T14:55:11;3.35;;;1.20;;
7166;SDS011;3625;51.762;14.320;2022-08-01T14:57:40;2.03;;;1.10;;
7166;SDS011;3625;51.762;14.320;2022-08-01T15:00:09;2.22;;;1.17;;
7166;SDS011;3625;51.762;14.320;2022-08-01T15:02:41;2.13;;;1.17;;
7166;SDS011;3625;51.762;14.320;2022-08-01T15:05:11;1.40;;;1.30;;
7166;SDS011;3625;51.762;14.320;2022-08-01T15:07:39;1.83;;;1.20;;
7166;SDS011;3625;51.762;14.320;2022-08-01T15:10:17;1.92;;;1.20;;
7166;SDS011;3625;51.762;14.320;2022-08-01T15:12:48;1.30;;;1.20;;
7166;SDS011;3625;51.762;14.320;2022-08-01T15:15:17;1.02;;;1.00;;
7166;SDS011;3625;51.762;14.320;2022-08-01T15:17:47;2.00;;;1.25;;
7166;SDS011;3625;51.762;14.320;2022-08-01T15:20:18;1.17;;;1.13;;
7166;SDS011;3625;51.762;14.320;2022-08-01T15:22:47;2.20;;;1.33;;
7166;SDS011;3625;51.762;14.320;2022-08-01T15:25:15;1.55;;;1.25;;
7166;SDS011;3625;51.762;14.320;2022-08-01T15:27:44;1.70;;;1.23;;
7166;SDS011;3625;51.762;14.320;2022-08-01T15:30:13;1.30;;;1.20;;
7166;SDS011;3625;51.762;14.320;2022-08-01T15:32:50;1.10;;;1.10;;
7166;SDS011;3625;51.762;14.320;2022-08-01T15:35:18;1.40;;;1.30;;
7166;SDS011;3625;51.762;14.320;2022-08-01T15:37:47;1.30;;;1.20;;
7166;SDS011;3625;51.762;14.320;2022-08-01T15:40:16;2.17;;;1.30;;
7166;SDS011;3625;51.762;14.320;2022-08-01T15:42:47;1.40;;;1.30;;
7166;SDS011;3625;51.762;14.320;2022-08-01T15:45:16;1.55;;;1.40;;
7166;SDS011;3625;51.762;14.320;2022-08-01T15:48:08;1.30;;;1.20;;
7166;SDS011;3625;51.762;14.320;2022-08-01T15:50:37;1.35;;;1.25;;